MGMO2: Mangum 1S (Slt Fk Red R)

Data processed at Wed May 22 2019 23:30


All information presented herein is the property of the government of the United States of America and may be revised or deleted at any time without prior notice.
Dissemination of this information without the expressed written consent of the Public Affairs Office, Tulsa District U.S. Army Corps of Engineers is strictly prohibited.
These data are gathered electronically and, as presented, have not undergone any form of quality control. These data are not guaranteed to be valid or correct.
Go to home page.
Go to station list.
Go to home page.

Downstream station:


Previous Day
Next Day
Current Day
    
SHEF ID:       MGMO2     Salt Fork Red River at Mangum, O
STATION TYPE:  
Regulating: Stage =     9.00, Flow =     3416

               PRECIP     STAGE  RIV-FLOW  BAT-LOAD
                   in        ft       cfs      volt
              Ccp-Rev   Ccp-Rev   Ccp-Rev   Ccp-Rev
(US/Central)
05/22 00:00      ----      6.61      1441     12.81
05/22 01:00      ----      6.53      1390     12.81
05/22 02:00      ----      6.41      1315     12.81
05/22 03:00      ----      6.23      1206     12.73
05/22 04:00      ----      5.92      1031     12.73
05/22 05:00      ----      5.58       859     12.73
05/22 06:00      ----      5.34       750     12.73
05/22 07:00      ----      5.14       664     12.65
05/22 08:00      ----      5.06       631     12.81
05/22 09:00      ----      5.02       615     13.13
05/22 10:00      ----      4.97       595     13.21
05/22 11:00      ----      4.97       595     13.13
05/22 12:00      ----      4.96       591     13.13
05/22 13:00      ----      4.95       587     13.60
05/22 14:00      ----      4.92       575     13.60
05/22 15:00      ----      4.89       563     13.29
05/22 16:00      ----      4.91       571     13.21
05/22 17:00      ----      4.89       563     13.21
05/22 18:00      ----      4.88       560     13.21
05/22 19:00      ----      4.85       548     13.21
05/22 20:00      ----      4.85       548     13.13
05/22 21:00      ----      4.83       540     12.97
05/22 22:00      ----      4.81       533     12.97
05/22 23:00      ----      ----      ----      ----